sensor_id;sensor_type;location;lat;lon;timestamp;P1;durP1;ratioP1;P2;durP2;ratioP2
39322;SDS011;25036;53.638;10.134;2023-08-01T00:00:18;1.47;;;1.10;;
39322;SDS011;25036;53.638;10.134;2023-08-01T00:01:18;1.67;;;1.38;;
39322;SDS011;25036;53.638;10.134;2023-08-01T00:02:18;2.77;;;1.17;;
39322;SDS011;25036;53.638;10.134;2023-08-01T00:03:18;1.23;;;1.10;;
39322;SDS011;25036;53.638;10.134;2023-08-01T00:04:18;1.10;;;1.10;;
39322;SDS011;25036;53.638;10.134;2023-08-01T00:05:18;3.23;;;1.40;;
39322;SDS011;25036;53.638;10.134;2023-08-01T00:06:19;2.03;;;1.60;;
39322;SDS011;25036;53.638;10.134;2023-08-01T00:07:19;1.65;;;1.20;;
39322;SDS011;25036;53.638;10.134;2023-08-01T00:08:20;1.60;;;1.20;;
39322;SDS011;25036;53.638;10.134;2023-08-01T00:09:20;1.63;;;1.30;;
39322;SDS011;25036;53.638;10.134;2023-08-01T00:10:20;1.90;;;1.20;;
39322;SDS011;25036;53.638;10.134;2023-08-01T00:11:20;2.63;;;1.40;;
39322;SDS011;25036;53.638;10.134;2023-08-01T00:12:20;2.63;;;1.60;;
39322;SDS011;25036;53.638;10.134;2023-08-01T00:13:21;1.52;;;1.42;;
39322;SDS011;25036;53.638;10.134;2023-08-01T00:14:21;1.47;;;1.37;;
39322;SDS011;25036;53.638;10.134;2023-08-01T00:15:24;2.83;;;1.60;;
39322;SDS011;25036;53.638;10.134;2023-08-01T00:16:24;1.70;;;1.50;;
39322;SDS011;25036;53.638;10.134;2023-08-01T00:17:24;1.50;;;1.40;;
39322;SDS011;25036;53.638;10.134;2023-08-01T00:18:24;1.93;;;1.70;;
39322;SDS011;25036;53.638;10.134;2023-08-01T00:19:24;2.20;;;1.57;;
39322;SDS011;25036;53.638;10.134;2023-08-01T00:20:24;2.27;;;1.67;;
39322;SDS011;25036;53.638;10.134;2023-08-01T00:21:25;2.40;;;1.65;;
39322;SDS011;25036;53.638;10.134;2023-08-01T00:22:25;1.83;;;1.40;;
39322;SDS011;25036;53.638;10.134;2023-08-01T00:23:25;2.00;;;1.50;;
39322;SDS011;25036;53.638;10.134;2023-08-01T00:24:25;2.13;;;1.10;;
39322;SDS011;25036;53.638;10.134;2023-08-01T00:25:25;1.17;;;1.00;;
39322;SDS011;25036;53.638;10.134;2023-08-01T00:26:25;1.30;;;0.97;;
39322;SDS011;25036;53.638;10.134;2023-08-01T00:27:25;2.43;;;1.00;;
39322;SDS011;25036;53.638;10.134;2023-08-01T00:28:26;1.55;;;1.10;;
39322;SDS011;25036;53.638;10.134;2023-08-01T00:29:26;1.83;;;1.00;;
39322;SDS011;25036;53.638;10.134;2023-08-01T00:30:26;1.10;;;0.90;;
39322;SDS011;25036;53.638;10.134;2023-08-01T00:31:27;0.70;;;0.70;;
39322;SDS011;25036;53.638;10.134;2023-08-01T00:32:27;1.93;;;0.90;;
39322;SDS011;25036;53.638;10.134;2023-08-01T00:33:27;1.00;;;0.90;;
39322;SDS011;25036;53.638;10.134;2023-08-01T00:34:27;1.07;;;0.83;;
39322;SDS011;25036;53.638;10.134;2023-08-01T00:35:27;1.50;;;0.80;;
39322;SDS011;25036;53.638;10.134;2023-08-01T00:36:27;2.33;;;0.90;;
39322;SDS011;25036;53.638;10.134;2023-08-01T00:37:27;0.80;;;0.77;;
39322;SDS011;25036;53.638;10.134;2023-08-01T00:38:28;1.07;;;0.80;;
39322;SDS011;25036;53.638;10.134;2023-08-01T00:39:28;1.75;;;1.02;;
39322;SDS011;25036;53.638;10.134;2023-08-01T00:40:31;1.95;;;0.90;;
39322;SDS011;25036;53.638;10.134;2023-08-01T00:41:31;2.20;;;1.00;;
39322;SDS011;25036;53.638;10.134;2023-08-01T00:42:32;1.23;;;0.93;;
39322;SDS011;25036;53.638;10.134;2023-08-01T00:43:32;1.23;;;0.80;;
39322;SDS011;25036;53.638;10.134;2023-08-01T00:44:32;0.93;;;0.80;;
39322;SDS011;25036;53.638;10.134;2023-08-01T00:45:32;1.00;;;0.80;;
39322;SDS011;25036;53.638;10.134;2023-08-01T00:46:32;1.27;;;0.95;;
39322;SDS011;25036;53.638;10.134;2023-08-01T00:47:33;1.17;;;1.00;;
39322;SDS011;25036;53.638;10.134;2023-08-01T00:48:33;1.02;;;0.90;;
39322;SDS011;25036;53.638;10.134;2023-08-01T00:49:33;2.00;;;0.77;;
39322;SDS011;25036;53.638;10.134;2023-08-01T00:50:33;1.90;;;0.80;;
39322;SDS011;25036;53.638;10.134;2023-08-01T00:51:34;0.80;;;0.77;;
39322;SDS011;25036;53.638;10.134;2023-08-01T00:52:34;2.17;;;1.10;;
39322;SDS011;25036;53.638;10.134;2023-08-01T00:53:35;0.73;;;0.73;;
39322;SDS011;25036;53.638;10.134;2023-08-01T00:54:35;0.80;;;0.70;;
39322;SDS011;25036;53.638;10.134;2023-08-01T00:55:36;1.67;;;0.77;;
39322;SDS011;25036;53.638;10.134;2023-08-01T00:56:37;1.75;;;0.93;;
39322;SDS011;25036;53.638;10.134;2023-08-01T00:57:37;1.00;;;0.90;;
39322;SDS011;25036;53.638;10.134;2023-08-01T00:58:37;0.90;;;0.70;;
39322;SDS011;25036;53.638;10.134;2023-08-01T00:59:38;1.17;;;0.80;;
39322;SDS011;25036;53.638;10.134;2023-08-01T01:00:38;1.60;;;0.80;;
39322;SDS011;25036;53.638;10.134;2023-08-01T01:01:39;2.78;;;1.08;;
39322;SDS011;25036;53.638;10.134;2023-08-01T01:02:39;0.77;;;0.77;;
39322;SDS011;25036;53.638;10.134;2023-08-01T01:03:39;1.55;;;0.70;;
39322;SDS011;25036;53.638;10.134;2023-08-01T01:04:40;0.70;;;0.70;;
39322;SDS011;25036;53.638;10.134;2023-08-01T01:05:41;1.60;;;0.90;;
39322;SDS011;25036;53.638;10.134;2023-08-01T01:06:51;1.58;;;1.13;;
39322;SDS011;25036;53.638;10.134;2023-08-01T01:07:52;0.70;;;0.70;;
39322;SDS011;25036;53.638;10.134;2023-08-01T01:08:53;2.35;;;0.70;;
39322;SDS011;25036;53.638;10.134;2023-08-01T01:09:55;2.75;;;1.00;;
39322;SDS011;25036;53.638;10.134;2023-08-01T01:10:55;1.13;;;0.83;;
39322;SDS011;25036;53.638;10.134;2023-08-01T01:11:55;0.87;;;0.80;;
39322;SDS011;25036;53.638;10.134;2023-08-01T01:12:55;0.90;;;0.90;;
39322;SDS011;25036;53.638;10.134;2023-08-01T01:13:56;0.73;;;0.63;;
39322;SDS011;25036;53.638;10.134;2023-08-01T01:14:56;1.17;;;0.90;;
39322;SDS011;25036;53.638;10.134;2023-08-01T01:15:56;1.40;;;0.90;;
39322;SDS011;25036;53.638;10.134;2023-08-01T01:16:56;0.70;;;0.70;;
39322;SDS011;25036;53.638;10.134;2023-08-01T01:17:56;2.20;;;0.90;;
39322;SDS011;25036;53.638;10.134;2023-08-01T01:18:56;2.53;;;0.90;;
39322;SDS011;25036;53.638;10.134;2023-08-01T01:19:56;0.80;;;0.70;;
39322;SDS011;25036;53.638;10.134;2023-08-01T01:20:58;2.38;;;0.75;;
39322;SDS011;25036;53.638;10.134;2023-08-01T01:21:58;0.80;;;0.80;;
39322;SDS011;25036;53.638;10.134;2023-08-01T01:22:58;0.63;;;0.63;;
39322;SDS011;25036;53.638;10.134;2023-08-01T01:23:59;1.25;;;0.80;;
39322;SDS011;25036;53.638;10.134;2023-08-01T01:24:59;3.10;;;0.93;;
39322;SDS011;25036;53.638;10.134;2023-08-01T01:26:00;1.13;;;1.00;;
39322;SDS011;25036;53.638;10.134;2023-08-01T01:27:00;0.80;;;0.80;;
39322;SDS011;25036;53.638;10.134;2023-08-01T01:28:03;1.83;;;0.82;;
39322;SDS011;25036;53.638;10.134;2023-08-01T01:29:04;1.08;;;0.90;;
39322;SDS011;25036;53.638;10.134;2023-08-01T01:30:05;1.10;;;0.98;;
39322;SDS011;25036;53.638;10.134;2023-08-01T01:31:06;1.25;;;0.90;;
39322;SDS011;25036;53.638;10.134;2023-08-01T01:32:06;1.95;;;1.10;;
39322;SDS011;25036;53.638;10.134;2023-08-01T01:33:07;2.33;;;1.13;;
39322;SDS011;25036;53.638;10.134;2023-08-01T01:34:09;1.75;;;0.85;;
39322;SDS011;25036;53.638;10.134;2023-08-01T01:35:09;1.17;;;0.82;;
39322;SDS011;25036;53.638;10.134;2023-08-01T01:36:09;2.33;;;1.10;;
39322;SDS011;25036;53.638;10.134;2023-08-01T01:37:09;1.43;;;1.00;;
39322;SDS011;25036;53.638;10.134;2023-08-01T01:38:10;1.40;;;1.05;;
39322;SDS011;25036;53.638;10.134;2023-08-01T01:39:10;1.03;;;0.80;;
39322;SDS011;25036;53.638;10.134;2023-08-01T01:40:10;2.60;;;1.27;;
39322;SDS011;25036;53.638;10.134;2023-08-01T01:41:11;2.05;;;1.20;;
39322;SDS011;25036;53.638;10.134;2023-08-01T01:42:11;1.27;;;1.17;;
39322;SDS011;25036;53.638;10.134;2023-08-01T01:43:13;1.92;;;1.15;;
39322;SDS011;25036;53.638;10.134;2023-08-01T01:44:13;1.40;;;1.30;;
39322;SDS011;25036;53.638;10.134;2023-08-01T01:45:13;1.93;;;1.50;;
39322;SDS011;25036;53.638;10.134;2023-08-01T01:46:13;1.90;;;1.40;;
39322;SDS011;25036;53.638;10.134;2023-08-01T01:47:13;1.40;;;1.30;;
39322;SDS011;25036;53.638;10.134;2023-08-01T01:48:13;1.93;;;1.40;;
39322;SDS011;25036;53.638;10.134;2023-08-01T01:49:14;1.63;;;1.53;;
39322;SDS011;25036;53.638;10.134;2023-08-01T01:50:14;3.37;;;1.60;;
39322;SDS011;25036;53.638;10.134;2023-08-01T01:51:14;2.47;;;1.50;;
39322;SDS011;25036;53.638;10.134;2023-08-01T01:52:14;1.95;;;1.77;;
39322;SDS011;25036;53.638;10.134;2023-08-01T01:53:14;1.60;;;1.50;;
39322;SDS011;25036;53.638;10.134;2023-08-01T01:54:14;1.80;;;1.70;;
39322;SDS011;25036;53.638;10.134;2023-08-01T01:55:15;3.77;;;1.90;;
39322;SDS011;25036;53.638;10.134;2023-08-01T01:56:15;1.70;;;1.60;;
39322;SDS011;25036;53.638;10.134;2023-08-01T01:57:15;2.20;;;2.00;;
39322;SDS011;25036;53.638;10.134;2023-08-01T01:58:15;1.97;;;1.80;;
39322;SDS011;25036;53.638;10.134;2023-08-01T01:59:15;3.40;;;2.13;;
39322;SDS011;25036;53.638;10.134;2023-08-01T02:00:15;2.50;;;1.90;;
39322;SDS011;25036;53.638;10.134;2023-08-01T02:01:15;2.65;;;2.20;;
39322;SDS011;25036;53.638;10.134;2023-08-01T02:02:16;2.57;;;2.20;;
39322;SDS011;25036;53.638;10.134;2023-08-01T02:03:16;3.50;;;2.40;;
39322;SDS011;25036;53.638;10.134;2023-08-01T02:04:16;2.85;;;2.22;;
39322;SDS011;25036;53.638;10.134;2023-08-01T02:05:16;4.20;;;2.03;;
39322;SDS011;25036;53.638;10.134;2023-08-01T02:06:16;3.23;;;2.40;;
39322;SDS011;25036;53.638;10.134;2023-08-01T02:07:16;3.70;;;2.40;;
39322;SDS011;25036;53.638;10.134;2023-08-01T02:08:16;2.60;;;2.40;;
39322;SDS011;25036;53.638;10.134;2023-08-01T02:09:17;2.93;;;2.43;;
39322;SDS011;25036;53.638;10.134;2023-08-01T02:10:17;2.47;;;2.20;;
39322;SDS011;25036;53.638;10.134;2023-08-01T02:11:17;3.10;;;2.80;;
39322;SDS011;25036;53.638;10.134;2023-08-01T02:12:17;4.83;;;2.60;;
39322;SDS011;25036;53.638;10.134;2023-08-01T02:13:17;4.33;;;2.70;;
39322;SDS011;25036;53.638;10.134;2023-08-01T02:14:17;3.83;;;2.93;;
39322;SDS011;25036;53.638;10.134;2023-08-01T02:15:17;2.63;;;2.43;;
39322;SDS011;25036;53.638;10.134;2023-08-01T02:16:18;2.63;;;2.43;;
39322;SDS011;25036;53.638;10.134;2023-08-01T02:17:18;3.20;;;2.50;;
39322;SDS011;25036;53.638;10.134;2023-08-01T02:18:18;3.40;;;2.90;;
39322;SDS011;25036;53.638;10.134;2023-08-01T02:19:18;3.50;;;2.90;;
39322;SDS011;25036;53.638;10.134;2023-08-01T02:20:18;3.63;;;2.97;;
39322;SDS011;25036;53.638;10.134;2023-08-01T02:21:18;5.25;;;2.95;;
39322;SDS011;25036;53.638;10.134;2023-08-01T02:22:19;3.63;;;2.80;;
39322;SDS011;25036;53.638;10.134;2023-08-01T02:23:19;2.55;;;2.33;;
39322;SDS011;25036;53.638;10.134;2023-08-01T02:24:20;3.87;;;2.87;;
39322;SDS011;25036;53.638;10.134;2023-08-01T02:25:20;3.30;;;3.00;;
39322;SDS011;25036;53.638;10.134;2023-08-01T02:26:20;3.30;;;3.00;;
39322;SDS011;25036;53.638;10.134;2023-08-01T02:27:22;3.30;;;2.83;;
39322;SDS011;25036;53.638;10.134;2023-08-01T02:28:22;4.00;;;2.80;;
39322;SDS011;25036;53.638;10.134;2023-08-01T02:29:22;4.30;;;2.83;;
39322;SDS011;25036;53.638;10.134;2023-08-01T02:30:22;3.23;;;2.93;;
39322;SDS011;25036;53.638;10.134;2023-08-01T02:31:23;3.73;;;3.20;;
39322;SDS011;25036;53.638;10.134;2023-08-01T02:32:23;3.37;;;3.07;;
39322;SDS011;25036;53.638;10.134;2023-08-01T02:33:23;3.65;;;3.05;;
39322;SDS011;25036;53.638;10.134;2023-08-01T02:34:23;3.67;;;3.37;;
39322;SDS011;25036;53.638;10.134;2023-08-01T02:35:23;4.73;;;3.70;;
39322;SDS011;25036;53.638;10.134;2023-08-01T02:36:23;3.80;;;3.40;;
39322;SDS011;25036;53.638;10.134;2023-08-01T02:37:23;4.33;;;3.60;;
39322;SDS011;25036;53.638;10.134;2023-08-01T02:38:24;3.67;;;3.38;;
39322;SDS011;25036;53.638;10.134;2023-08-01T02:39:25;3.57;;;3.27;;
39322;SDS011;25036;53.638;10.134;2023-08-01T02:40:25;4.35;;;3.70;;
39322;SDS011;25036;53.638;10.134;2023-08-01T02:41:26;4.50;;;3.90;;
39322;SDS011;25036;53.638;10.134;2023-08-01T02:42:26;3.90;;;3.50;;
39322;SDS011;25036;53.638;10.134;2023-08-01T02:43:27;5.25;;;3.55;;
39322;SDS011;25036;53.638;10.134;2023-08-01T02:44:28;3.88;;;3.50;;
39322;SDS011;25036;53.638;10.134;2023-08-01T02:45:28;4.80;;;3.92;;
39322;SDS011;25036;53.638;10.134;2023-08-01T02:46:28;4.17;;;3.47;;
39322;SDS011;25036;53.638;10.134;2023-08-01T02:47:29;4.75;;;3.47;;
39322;SDS011;25036;53.638;10.134;2023-08-01T02:48:29;4.33;;;3.80;;
39322;SDS011;25036;53.638;10.134;2023-08-01T02:49:30;4.07;;;3.60;;
39322;SDS011;25036;53.638;10.134;2023-08-01T02:50:30;4.20;;;3.80;;
39322;SDS011;25036;53.638;10.134;2023-08-01T02:51:30;4.10;;;3.70;;
39322;SDS011;25036;53.638;10.134;2023-08-01T02:52:30;3.77;;;3.40;;
39322;SDS011;25036;53.638;10.134;2023-08-01T02:53:30;5.30;;;4.00;;
39322;SDS011;25036;53.638;10.134;2023-08-01T02:54:30;5.30;;;3.90;;
39322;SDS011;25036;53.638;10.134;2023-08-01T02:55:30;5.93;;;4.13;;
39322;SDS011;25036;53.638;10.134;2023-08-01T02:56:30;4.70;;;3.40;;
39322;SDS011;25036;53.638;10.134;2023-08-01T02:57:31;4.50;;;3.90;;
39322;SDS011;25036;53.638;10.134;2023-08-01T02:58:31;7.30;;;3.97;;
39322;SDS011;25036;53.638;10.134;2023-08-01T02:59:32;6.72;;;3.50;;
39322;SDS011;25036;53.638;10.134;2023-08-01T03:00:33;5.45;;;3.88;;
39322;SDS011;25036;53.638;10.134;2023-08-01T03:01:33;4.90;;;4.10;;
39322;SDS011;25036;53.638;10.134;2023-08-01T03:02:33;4.37;;;3.97;;
39322;SDS011;25036;53.638;10.134;2023-08-01T03:03:33;4.40;;;3.53;;
39322;SDS011;25036;53.638;10.134;2023-08-01T03:04:35;6.20;;;4.15;;
39322;SDS011;25036;53.638;10.134;2023-08-01T03:05:36;6.37;;;4.27;;
39322;SDS011;25036;53.638;10.134;2023-08-01T03:06:37;4.35;;;3.95;;
39322;SDS011;25036;53.638;10.134;2023-08-01T03:07:37;6.88;;;4.10;;
39322;SDS011;25036;53.638;10.134;2023-08-01T03:08:37;4.40;;;4.00;;
39322;SDS011;25036;53.638;10.134;2023-08-01T03:09:37;4.40;;;3.67;;
39322;SDS011;25036;53.638;10.134;2023-08-01T03:10:38;4.20;;;3.80;;
39322;SDS011;25036;53.638;10.134;2023-08-01T03:11:38;4.10;;;3.80;;
39322;SDS011;25036;53.638;10.134;2023-08-01T03:12:38;4.63;;;3.23;;
39322;SDS011;25036;53.638;10.134;2023-08-01T03:13:38;4.10;;;3.40;;
39322;SDS011;25036;53.638;10.134;2023-08-01T03:14:38;4.47;;;3.37;;
39322;SDS011;25036;53.638;10.134;2023-08-01T03:15:38;4.63;;;3.83;;
39322;SDS011;25036;53.638;10.134;2023-08-01T03:16:38;4.27;;;3.80;;
39322;SDS011;25036;53.638;10.134;2023-08-01T03:17:39;4.37;;;4.00;;
39322;SDS011;25036;53.638;10.134;2023-08-01T03:18:39;5.30;;;4.10;;
39322;SDS011;25036;53.638;10.134;2023-08-01T03:19:39;4.60;;;4.20;;
39322;SDS011;25036;53.638;10.134;2023-08-01T03:20:39;4.13;;;3.80;;
39322;SDS011;25036;53.638;10.134;2023-08-01T03:21:39;4.40;;;4.10;;
39322;SDS011;25036;53.638;10.134;2023-08-01T03:22:39;5.23;;;4.20;;
39322;SDS011;25036;53.638;10.134;2023-08-01T03:23:40;4.20;;;3.80;;
39322;SDS011;25036;53.638;10.134;2023-08-01T03:24:40;6.20;;;5.23;;
39322;SDS011;25036;53.638;10.134;2023-08-01T03:25:40;5.03;;;4.10;;
39322;SDS011;25036;53.638;10.134;2023-08-01T03:26:40;5.03;;;4.10;;
39322;SDS011;25036;53.638;10.134;2023-08-01T03:27:40;4.60;;;4.20;;
39322;SDS011;25036;53.638;10.134;2023-08-01T03:28:40;6.57;;;4.27;;
39322;SDS011;25036;53.638;10.134;2023-08-01T03:29:41;5.73;;;4.60;;
39322;SDS011;25036;53.638;10.134;2023-08-01T03:30:41;4.83;;;4.37;;
39322;SDS011;25036;53.638;10.134;2023-08-01T03:31:41;5.10;;;4.60;;
39322;SDS011;25036;53.638;10.134;2023-08-01T03:32:41;7.63;;;4.23;;
39322;SDS011;25036;53.638;10.134;2023-08-01T03:33:41;7.27;;;4.77;;
39322;SDS011;25036;53.638;10.134;2023-08-01T03:34:41;4.60;;;4.20;;
39322;SDS011;25036;53.638;10.134;2023-08-01T03:35:41;5.30;;;4.55;;
39322;SDS011;25036;53.638;10.134;2023-08-01T03:36:42;5.00;;;4.07;;
39322;SDS011;25036;53.638;10.134;2023-08-01T03:37:42;5.55;;;4.53;;
39322;SDS011;25036;53.638;10.134;2023-08-01T03:38:42;7.07;;;4.47;;
39322;SDS011;25036;53.638;10.134;2023-08-01T03:39:43;7.57;;;4.70;;
39322;SDS011;25036;53.638;10.134;2023-08-01T03:40:43;5.93;;;4.80;;
39322;SDS011;25036;53.638;10.134;2023-08-01T03:41:43;5.20;;;4.70;;
39322;SDS011;25036;53.638;10.134;2023-08-01T03:42:43;5.78;;;5.03;;
39322;SDS011;25036;53.638;10.134;2023-08-01T03:43:44;4.55;;;4.15;;
39322;SDS011;25036;53.638;10.134;2023-08-01T03:44:44;5.67;;;4.80;;
39322;SDS011;25036;53.638;10.134;2023-08-01T03:45:44;5.40;;;4.30;;
39322;SDS011;25036;53.638;10.134;2023-08-01T03:46:44;6.37;;;4.70;;
39322;SDS011;25036;53.638;10.134;2023-08-01T03:47:44;6.63;;;5.73;;
39322;SDS011;25036;53.638;10.134;2023-08-01T03:48:44;7.43;;;4.90;;
39322;SDS011;25036;53.638;10.134;2023-08-01T03:49:45;5.60;;;5.07;;
39322;SDS011;25036;53.638;10.134;2023-08-01T03:50:45;5.63;;;4.40;;
39322;SDS011;25036;53.638;10.134;2023-08-01T03:51:45;6.63;;;4.83;;
39322;SDS011;25036;53.638;10.134;2023-08-01T03:52:45;7.57;;;4.90;;
39322;SDS011;25036;53.638;10.134;2023-08-01T03:53:45;6.27;;;5.20;;
39322;SDS011;25036;53.638;10.134;2023-08-01T03:54:45;5.88;;;5.03;;
39322;SDS011;25036;53.638;10.134;2023-08-01T03:55:46;5.03;;;4.53;;
39322;SDS011;25036;53.638;10.134;2023-08-01T03:56:46;6.57;;;4.80;;
39322;SDS011;25036;53.638;10.134;2023-08-01T03:57:46;5.07;;;4.57;;
39322;SDS011;25036;53.638;10.134;2023-08-01T03:58:47;5.37;;;4.87;;
39322;SDS011;25036;53.638;10.134;2023-08-01T03:59:47;5.63;;;4.90;;
39322;SDS011;25036;53.638;10.134;2023-08-01T04:00:47;9.65;;;5.80;;
39322;SDS011;25036;53.638;10.134;2023-08-01T04:01:47;5.43;;;4.83;;
39322;SDS011;25036;53.638;10.134;2023-08-01T04:02:47;5.13;;;4.70;;
39322;SDS011;25036;53.638;10.134;2023-08-01T04:03:47;5.70;;;4.57;;
39322;SDS011;25036;53.638;10.134;2023-08-01T04:04:48;5.60;;;5.10;;
39322;SDS011;25036;53.638;10.134;2023-08-01T04:05:48;8.10;;;5.13;;
39322;SDS011;25036;53.638;10.134;2023-08-01T04:06:48;6.57;;;5.43;;
39322;SDS011;25036;53.638;10.134;2023-08-01T04:07:48;6.47;;;5.82;;
39322;SDS011;25036;53.638;10.134;2023-08-01T04:08:48;6.30;;;4.97;;
39322;SDS011;25036;53.638;10.134;2023-08-01T04:09:48;7.80;;;5.23;;
39322;SDS011;25036;53.638;10.134;2023-08-01T04:10:49;5.78;;;5.18;;
39322;SDS011;25036;53.638;10.134;2023-08-01T04:11:50;7.80;;;5.00;;
39322;SDS011;25036;53.638;10.134;2023-08-01T04:12:50;6.40;;;5.17;;
39322;SDS011;25036;53.638;10.134;2023-08-01T04:13:50;6.50;;;4.78;;
39322;SDS011;25036;53.638;10.134;2023-08-01T04:14:51;6.73;;;4.90;;
39322;SDS011;25036;53.638;10.134;2023-08-01T04:15:51;6.20;;;5.10;;
39322;SDS011;25036;53.638;10.134;2023-08-01T04:16:51;5.57;;;4.63;;
39322;SDS011;25036;53.638;10.134;2023-08-01T04:17:51;6.37;;;4.80;;
39322;SDS011;25036;53.638;10.134;2023-08-01T04:18:51;7.57;;;4.67;;
39322;SDS011;25036;53.638;10.134;2023-08-01T04:19:51;5.30;;;4.83;;
39322;SDS011;25036;53.638;10.134;2023-08-01T04:20:52;4.97;;;4.57;;
39322;SDS011;25036;53.638;10.134;2023-08-01T04:21:52;5.63;;;5.03;;
39322;SDS011;25036;53.638;10.134;2023-08-01T04:22:52;5.97;;;4.83;;
39322;SDS011;25036;53.638;10.134;2023-08-01T04:23:52;6.82;;;5.20;;
39322;SDS011;25036;53.638;10.134;2023-08-01T04:24:52;5.17;;;4.67;;
39322;SDS011;25036;53.638;10.134;2023-08-01T04:25:52;6.73;;;4.67;;
39322;SDS011;25036;53.638;10.134;2023-08-01T04:26:53;6.45;;;5.47;;
39322;SDS011;25036;53.638;10.134;2023-08-01T04:27:54;6.43;;;4.63;;
39322;SDS011;25036;53.638;10.134;2023-08-01T04:28:54;6.93;;;4.90;;
39322;SDS011;25036;53.638;10.134;2023-08-01T04:29:55;6.23;;;4.80;;
39322;SDS011;25036;53.638;10.134;2023-08-01T04:30:55;9.23;;;4.50;;
39322;SDS011;25036;53.638;10.134;2023-08-01T04:31:55;7.47;;;4.70;;
39322;SDS011;25036;53.638;10.134;2023-08-01T04:32:55;7.30;;;5.07;;
39322;SDS011;25036;53.638;10.134;2023-08-01T04:33:55;4.60;;;4.20;;
39322;SDS011;25036;53.638;10.134;2023-08-01T04:34:55;7.33;;;4.97;;
39322;SDS011;25036;53.638;10.134;2023-08-01T04:35:56;5.30;;;4.80;;
39322;SDS011;25036;53.638;10.134;2023-08-01T04:36:56;7.20;;;4.75;;
39322;SDS011;25036;53.638;10.134;2023-08-01T04:37:56;4.80;;;4.20;;
39322;SDS011;25036;53.638;10.134;2023-08-01T04:38:56;8.73;;;5.17;;
39322;SDS011;25036;53.638;10.134;2023-08-01T04:39:56;6.90;;;5.50;;
39322;SDS011;25036;53.638;10.134;2023-08-01T04:40:56;5.17;;;4.30;;
39322;SDS011;25036;53.638;10.134;2023-08-01T04:41:56;5.40;;;4.80;;
39322;SDS011;25036;53.638;10.134;2023-08-01T04:42:57;9.83;;;4.73;;
39322;SDS011;25036;53.638;10.134;2023-08-01T04:43:57;5.80;;;4.90;;
39322;SDS011;25036;53.638;10.134;2023-08-01T04:44:57;9.00;;;5.00;;
39322;SDS011;25036;53.638;10.134;2023-08-01T04:45:57;5.43;;;4.83;;
39322;SDS011;25036;53.638;10.134;2023-08-01T04:46:57;8.27;;;5.10;;
39322;SDS011;25036;53.638;10.134;2023-08-01T04:47:57;7.03;;;4.90;;
39322;SDS011;25036;53.638;10.134;2023-08-01T04:48:57;6.40;;;5.07;;
39322;SDS011;25036;53.638;10.134;2023-08-01T04:49:58;5.40;;;4.90;;
39322;SDS011;25036;53.638;10.134;2023-08-01T04:50:59;5.53;;;4.80;;
39322;SDS011;25036;53.638;10.134;2023-08-01T04:51:59;5.43;;;4.17;;
39322;SDS011;25036;53.638;10.134;2023-08-01T04:53:00;7.05;;;4.90;;
39322;SDS011;25036;53.638;10.134;2023-08-01T04:54:00;4.57;;;4.03;;
39322;SDS011;25036;53.638;10.134;2023-08-01T04:55:00;8.20;;;5.30;;
39322;SDS011;25036;53.638;10.134;2023-08-01T04:56:00;6.20;;;4.43;;
39322;SDS011;25036;53.638;10.134;2023-08-01T04:57:00;6.03;;;4.23;;
39322;SDS011;25036;53.638;10.134;2023-08-01T04:58:00;7.27;;;4.60;;
39322;SDS011;25036;53.638;10.134;2023-08-01T04:59:01;5.40;;;4.90;;
39322;SDS011;25036;53.638;10.134;2023-08-01T05:00:05;6.55;;;4.75;;
39322;SDS011;25036;53.638;10.134;2023-08-01T05:01:05;6.45;;;4.70;;
39322;SDS011;25036;53.638;10.134;2023-08-01T05:02:05;8.33;;;4.90;;
39322;SDS011;25036;53.638;10.134;2023-08-01T05:03:05;8.07;;;5.07;;
39322;SDS011;25036;53.638;10.134;2023-08-01T05:04:05;6.57;;;5.47;;
39322;SDS011;25036;53.638;10.134;2023-08-01T05:05:06;5.67;;;5.17;;
39322;SDS011;25036;53.638;10.134;2023-08-01T05:06:06;7.75;;;4.97;;
39322;SDS011;25036;53.638;10.134;2023-08-01T05:07:06;5.23;;;4.57;;
39322;SDS011;25036;53.638;10.134;2023-08-01T05:08:06;6.47;;;4.93;;
39322;SDS011;25036;53.638;10.134;2023-08-01T05:09:06;5.70;;;5.03;;
39322;SDS011;25036;53.638;10.134;2023-08-01T05:10:07;5.30;;;4.80;;
39322;SDS011;25036;53.638;10.134;2023-08-01T05:11:07;6.60;;;4.63;;
39322;SDS011;25036;53.638;10.134;2023-08-01T05:12:07;7.77;;;4.63;;
39322;SDS011;25036;53.638;10.134;2023-08-01T05:13:08;6.25;;;5.28;;
39322;SDS011;25036;53.638;10.134;2023-08-01T05:14:09;7.40;;;4.67;;
39322;SDS011;25036;53.638;10.134;2023-08-01T05:15:09;8.15;;;5.38;;
39322;SDS011;25036;53.638;10.134;2023-08-01T05:16:09;6.55;;;5.13;;
39322;SDS011;25036;53.638;10.134;2023-08-01T05:17:09;5.63;;;4.80;;
39322;SDS011;25036;53.638;10.134;2023-08-01T05:18:09;5.27;;;4.77;;
39322;SDS011;25036;53.638;10.134;2023-08-01T05:19:09;5.67;;;5.17;;
39322;SDS011;25036;53.638;10.134;2023-08-01T05:20:10;5.00;;;4.60;;
39322;SDS011;25036;53.638;10.134;2023-08-01T05:21:10;5.82;;;4.38;;
39322;SDS011;25036;53.638;10.134;2023-08-01T05:22:10;5.27;;;4.30;;
39322;SDS011;25036;53.638;10.134;2023-08-01T05:23:10;7.80;;;6.13;;
39322;SDS011;25036;53.638;10.134;2023-08-01T05:24:11;6.20;;;4.60;;
39322;SDS011;25036;53.638;10.134;2023-08-01T05:25:11;7.67;;;4.60;;
39322;SDS011;25036;53.638;10.134;2023-08-01T05:26:11;6.37;;;4.60;;
39322;SDS011;25036;53.638;10.134;2023-08-01T05:27:11;8.33;;;5.03;;
39322;SDS011;25036;53.638;10.134;2023-08-01T05:28:11;4.80;;;4.30;;
39322;SDS011;25036;53.638;10.134;2023-08-01T05:29:12;6.60;;;5.13;;
39322;SDS011;25036;53.638;10.134;2023-08-01T05:30:12;4.93;;;4.13;;
39322;SDS011;25036;53.638;10.134;2023-08-01T05:31:12;4.93;;;4.50;;
39322;SDS011;25036;53.638;10.134;2023-08-01T05:32:12;6.50;;;4.72;;
39322;SDS011;25036;53.638;10.134;2023-08-01T05:33:12;6.87;;;4.90;;
39322;SDS011;25036;53.638;10.134;2023-08-01T05:34:12;5.78;;;5.00;;
39322;SDS011;25036;53.638;10.134;2023-08-01T05:35:13;8.87;;;4.83;;
39322;SDS011;25036;53.638;10.134;2023-08-01T05:36:13;7.65;;;4.60;;
39322;SDS011;25036;53.638;10.134;2023-08-01T05:37:13;7.37;;;4.53;;
39322;SDS011;25036;53.638;10.134;2023-08-01T05:38:13;5.27;;;4.67;;
39322;SDS011;25036;53.638;10.134;2023-08-01T05:39:13;5.63;;;4.70;;
39322;SDS011;25036;53.638;10.134;2023-08-01T05:40:13;5.93;;;4.77;;
39322;SDS011;25036;53.638;10.134;2023-08-01T05:41:14;8.03;;;4.73;;
39322;SDS011;25036;53.638;10.134;2023-08-01T05:42:14;6.57;;;4.03;;
39322;SDS011;25036;53.638;10.134;2023-08-01T05:43:14;7.00;;;4.40;;
39322;SDS011;25036;53.638;10.134;2023-08-01T05:44:14;5.47;;;4.40;;
39322;SDS011;25036;53.638;10.134;2023-08-01T05:45:14;5.27;;;4.10;;
39322;SDS011;25036;53.638;10.134;2023-08-01T05:46:15;6.83;;;4.30;;
39322;SDS011;25036;53.638;10.134;2023-08-01T05:47:15;5.38;;;4.50;;
39322;SDS011;25036;53.638;10.134;2023-08-01T05:48:15;5.73;;;4.53;;
39322;SDS011;25036;53.638;10.134;2023-08-01T05:49:15;7.70;;;4.77;;
39322;SDS011;25036;53.638;10.134;2023-08-01T05:50:15;6.10;;;4.60;;
39322;SDS011;25036;53.638;10.134;2023-08-01T05:51:15;6.67;;;4.20;;
39322;SDS011;25036;53.638;10.134;2023-08-01T05:52:15;8.70;;;4.77;;
39322;SDS011;25036;53.638;10.134;2023-08-01T05:53:16;7.07;;;4.70;;
39322;SDS011;25036;53.638;10.134;2023-08-01T05:54:16;9.03;;;4.90;;
39322;SDS011;25036;53.638;10.134;2023-08-01T05:55:16;5.73;;;4.30;;
39322;SDS011;25036;53.638;10.134;2023-08-01T05:56:16;6.43;;;4.35;;
39322;SDS011;25036;53.638;10.134;2023-08-01T05:57:16;10.70;;;4.30;;